createdAt,value
2019-03-16T00:03:17.098Z,24.97
2019-03-16T00:07:32.842Z,15.50
2019-03-16T00:11:33.625Z,18.75
2019-03-16T00:15:41.826Z,16.23
2019-03-16T00:19:50.053Z,25.30
2019-03-16T00:23:58.281Z,17.57
2019-03-16T00:28:06.514Z,16.00
2019-03-16T00:32:14.734Z,15.90
2019-03-16T00:36:22.955Z,21.10
2019-03-16T00:40:31.201Z,12.60
2019-03-16T00:44:39.437Z,25.00
2019-03-16T00:48:47.628Z,25.83
2019-03-16T00:52:55.840Z,21.77
2019-03-16T00:57:04.025Z,16.93
2019-03-16T01:01:12.280Z,12.00
2019-03-16T01:05:20.501Z,13.27
2019-03-16T01:09:28.722Z,14.03
2019-03-16T01:13:36.921Z,23.70
2019-03-16T01:17:45.167Z,9.53
2019-03-16T01:21:53.365Z,13.68
2019-03-16T01:26:01.625Z,12.53
2019-03-16T01:30:12.421Z,10.73
2019-03-16T01:34:20.641Z,5.33
2019-03-16T01:38:28.948Z,15.00
2019-03-16T01:42:37.134Z,8.50
2019-03-16T01:46:46.043Z,9.37
2019-03-16T01:50:54.267Z,8.60
2019-03-16T01:55:02.497Z,10.60
2019-03-16T01:59:10.775Z,12.30
2019-03-16T02:03:18.991Z,9.10
2019-03-16T02:07:27.277Z,6.90
2019-03-16T02:11:35.530Z,14.50
2019-03-16T02:15:43.717Z,8.50
2019-03-16T02:19:51.904Z,8.10
2019-03-16T02:24:00.120Z,8.47
2019-03-16T02:28:08.335Z,13.03
2019-03-16T02:32:16.625Z,7.43
2019-03-16T02:36:24.878Z,7.20
2019-03-16T02:40:33.150Z,12.07
2019-03-16T02:44:41.429Z,7.90
2019-03-16T02:48:49.646Z,11.30
2019-03-16T02:52:57.899Z,9.60
2019-03-16T02:57:06.215Z,13.17
2019-03-16T03:01:14.493Z,12.33
2019-03-16T03:05:22.729Z,10.43
2019-03-16T03:09:30.962Z,8.80
2019-03-16T03:13:39.245Z,8.03
2019-03-16T03:17:47.513Z,8.68
2019-03-16T03:21:55.815Z,8.70
2019-03-16T03:26:04.078Z,11.50
2019-03-16T03:30:12.323Z,7.70
2019-03-16T03:34:20.580Z,9.97
2019-03-16T03:38:28.797Z,12.70
2019-03-16T03:42:37.037Z,7.57
2019-03-16T03:46:45.263Z,12.77
2019-03-16T03:50:53.481Z,11.03
2019-03-16T03:55:01.745Z,6.00
2019-03-16T03:59:10.033Z,15.33
2019-03-16T04:03:18.231Z,8.63
2019-03-16T04:07:26.444Z,5.67
2019-03-16T04:11:34.705Z,6.57
2019-03-16T04:15:42.963Z,10.37
2019-03-16T04:19:51.221Z,12.00
2019-03-16T04:23:59.414Z,11.43
2019-03-16T04:28:07.620Z,9.27
2019-03-16T04:32:15.873Z,18.33
2019-03-16T04:36:24.109Z,12.83
2019-03-16T04:40:32.375Z,9.00
2019-03-16T04:44:40.581Z,13.10
2019-03-16T04:48:48.796Z,8.70
2019-03-16T04:52:57.005Z,19.10
2019-03-16T04:57:05.263Z,11.60
2019-03-16T05:01:13.462Z,17.00
2019-03-16T05:05:21.696Z,13.18
2019-03-16T05:09:29.883Z,16.37
2019-03-16T05:13:38.059Z,17.23
2019-03-16T05:17:46.273Z,18.20
2019-03-16T05:21:54.517Z,14.83
2019-03-16T05:26:02.728Z,12.45
2019-03-16T05:30:11.496Z,17.20
2019-03-16T05:34:19.725Z,18.98
2019-03-16T05:38:27.917Z,12.67
2019-03-16T05:42:36.115Z,13.80
2019-03-16T05:46:44.321Z,15.30
2019-03-16T05:50:52.524Z,11.07
2019-03-16T05:55:00.788Z,13.60
2019-03-16T05:59:09.047Z,14.07
2019-03-16T06:03:17.365Z,10.27
2019-03-16T06:07:25.574Z,9.67
2019-03-16T06:11:33.843Z,14.87
2019-03-16T06:15:42.083Z,13.63
2019-03-16T06:19:50.380Z,8.20
2019-03-16T06:23:58.600Z,11.97
2019-03-16T06:28:06.835Z,6.63
2019-03-16T06:32:15.043Z,11.93
2019-03-16T06:36:23.263Z,9.20
2019-03-16T06:40:31.461Z,7.97
2019-03-16T06:44:39.636Z,13.83
2019-03-16T06:48:48.220Z,11.60
2019-03-16T06:52:56.390Z,10.63
2019-03-16T06:57:04.668Z,7.83
2019-03-16T07:01:12.877Z,8.45
2019-03-16T07:05:23.632Z,8.20
2019-03-16T07:09:29.399Z,7.20
2019-03-16T07:13:37.636Z,6.40
2019-03-16T07:17:45.911Z,7.33
2019-03-16T07:21:54.213Z,6.93
2019-03-16T07:26:14.132Z,9.27
2019-03-16T07:30:10.514Z,9.80
2019-03-16T07:34:18.728Z,7.87
2019-03-16T07:38:26.967Z,6.97
2019-03-16T07:42:35.164Z,9.67
2019-03-16T07:46:43.403Z,8.93
2019-03-16T07:50:51.911Z,7.50
2019-03-16T07:55:00.418Z,3.63
2019-03-16T07:59:08.432Z,5.50
2019-03-16T08:03:16.703Z,3.30
2019-03-16T08:07:24.948Z,3.50
2019-03-16T08:11:33.245Z,8.20
2019-03-16T08:15:41.484Z,3.80
2019-03-16T08:19:49.759Z,5.80
2019-03-16T08:23:58.045Z,3.03
2019-03-16T08:28:06.777Z,8.95
2019-03-16T08:32:14.983Z,5.17
2019-03-16T08:36:23.201Z,4.57
2019-03-16T08:40:31.409Z,3.70
2019-03-16T08:44:39.597Z,7.60
2019-03-16T08:48:47.857Z,4.63
2019-03-16T08:52:56.031Z,5.13
2019-03-16T08:57:04.261Z,3.50
2019-03-16T09:01:12.476Z,4.67
2019-03-16T09:05:20.712Z,6.53
2019-03-16T09:09:28.940Z,6.87
2019-03-16T09:13:37.138Z,11.47
2019-03-16T09:17:45.435Z,6.37
2019-03-16T09:21:53.664Z,3.47
2019-03-16T09:26:01.894Z,5.97
2019-03-16T09:30:11.087Z,4.23
2019-03-16T09:34:19.341Z,6.43
2019-03-16T09:38:27.561Z,3.40
2019-03-16T09:42:35.868Z,3.33
2019-03-16T09:46:44.145Z,8.40
2019-03-16T09:50:52.371Z,3.93
2019-03-16T09:55:00.593Z,5.17
2019-03-16T09:59:08.839Z,6.17
2019-03-16T10:03:17.102Z,2.87
2019-03-16T10:07:25.321Z,3.20
2019-03-16T10:11:33.571Z,2.90
2019-03-16T10:15:41.772Z,3.43
2019-03-16T10:19:50.078Z,3.90
2019-03-16T10:23:58.377Z,4.20
2019-03-16T10:28:06.618Z,2.70
2019-03-16T10:32:14.792Z,5.03
2019-03-16T10:36:23.097Z,4.90
2019-03-16T10:40:31.387Z,6.03
2019-03-16T10:44:39.601Z,3.00
2019-03-16T10:48:47.795Z,3.70
2019-03-16T10:52:56.015Z,5.90
2019-03-16T10:57:04.474Z,3.87
2019-03-16T11:01:12.450Z,3.67
2019-03-16T11:05:20.687Z,2.50
2019-03-16T11:09:28.867Z,3.93
2019-03-16T11:13:37.081Z,2.93
2019-03-16T11:17:45.285Z,2.43
2019-03-16T11:21:53.486Z,2.70
2019-03-16T11:26:01.773Z,2.97
2019-03-16T11:30:10.783Z,3.87
2019-03-16T11:34:18.981Z,2.87
2019-03-16T11:38:27.213Z,2.83
2019-03-16T11:42:35.429Z,5.03
2019-03-16T11:46:43.711Z,5.23
2019-03-16T11:50:51.981Z,6.60
2019-03-16T11:55:00.369Z,9.27
2019-03-16T11:59:20.790Z,3.80
2019-03-16T12:03:16.746Z,2.90
2019-03-16T12:07:24.946Z,7.25
2019-03-16T12:11:33.167Z,4.07
2019-03-16T12:15:41.367Z,4.10
2019-03-16T12:19:49.636Z,6.33
2019-03-16T12:23:57.866Z,3.00
2019-03-16T12:28:06.155Z,4.10
2019-03-16T12:32:14.348Z,4.13
2019-03-16T12:36:22.662Z,4.47
2019-03-16T12:40:30.882Z,3.40
2019-03-16T12:44:39.133Z,6.47
2019-03-16T12:48:47.347Z,4.87
2019-03-16T12:52:55.679Z,3.67
2019-03-16T12:57:03.893Z,3.07
2019-03-16T13:01:12.790Z,2.80
2019-03-16T13:05:20.382Z,3.73
2019-03-16T13:09:28.602Z,2.93
2019-03-16T13:13:36.867Z,3.47
2019-03-16T13:17:45.102Z,3.08
2019-03-16T13:21:53.423Z,4.10
2019-03-16T13:26:01.713Z,3.40
2019-03-16T13:30:11.616Z,4.30
2019-03-16T13:34:19.878Z,2.80
2019-03-16T13:38:28.082Z,3.23
2019-03-16T13:42:36.291Z,3.90
2019-03-16T13:46:44.587Z,3.50
2019-03-16T13:50:52.806Z,4.23
2019-03-16T13:55:01.060Z,4.60
2019-03-16T13:59:09.314Z,3.00
2019-03-16T14:03:17.583Z,3.43
2019-03-16T14:07:25.785Z,4.10
2019-03-16T14:11:33.981Z,3.93
2019-03-16T14:15:42.184Z,4.63
2019-03-16T14:19:50.384Z,4.23
2019-03-16T14:23:58.641Z,9.57
2019-03-16T14:28:06.869Z,4.43
2019-03-16T14:32:15.444Z,5.17
2019-03-16T14:36:23.725Z,5.30
2019-03-16T14:40:31.979Z,3.27
2019-03-16T14:44:40.276Z,7.50
2019-03-16T14:48:48.512Z,5.40
2019-03-16T14:52:56.748Z,3.50
2019-03-16T14:57:04.997Z,5.50
2019-03-16T15:01:13.514Z,3.00
2019-03-16T15:05:21.498Z,3.30
2019-03-16T15:09:31.797Z,5.53
2019-03-16T15:13:40.055Z,4.50
2019-03-16T15:17:48.267Z,3.50
2019-03-16T15:21:56.550Z,3.20
2019-03-16T15:26:04.770Z,4.00
2019-03-16T15:30:13.878Z,5.97
2019-03-16T15:34:22.100Z,2.90
2019-03-16T15:38:30.963Z,7.40
2019-03-16T15:42:38.619Z,3.30
2019-03-16T15:46:46.823Z,4.20
2019-03-16T15:50:55.081Z,2.85
2019-03-16T15:55:03.272Z,5.40
2019-03-16T15:59:11.524Z,4.40
2019-03-16T16:03:19.755Z,4.80
2019-03-16T16:07:27.975Z,4.90
2019-03-16T16:11:36.198Z,3.33
2019-03-16T16:15:44.423Z,3.93
2019-03-16T16:19:52.668Z,6.10
2019-03-16T16:24:00.898Z,4.07
2019-03-16T16:28:09.154Z,6.10
2019-03-16T16:32:17.459Z,5.03
2019-03-16T16:36:25.701Z,4.37
2019-03-16T16:40:33.923Z,5.07
2019-03-16T16:44:42.150Z,5.13
2019-03-16T16:48:50.421Z,4.30
2019-03-16T16:52:58.696Z,2.87
2019-03-16T16:57:06.943Z,3.13
2019-03-16T17:01:15.187Z,5.63
2019-03-16T17:05:23.421Z,6.53
2019-03-16T17:09:31.677Z,4.87
2019-03-16T17:13:39.971Z,5.60
2019-03-16T17:17:48.236Z,4.10
2019-03-16T17:21:56.506Z,3.63
2019-03-16T17:26:04.758Z,6.13
2019-03-16T17:30:14.837Z,6.27
2019-03-16T17:34:23.103Z,3.80
2019-03-16T17:38:31.344Z,4.00
2019-03-16T17:42:39.592Z,6.50
2019-03-16T17:46:47.866Z,5.73
2019-03-16T17:50:56.096Z,4.03
2019-03-16T17:55:05.314Z,6.67
2019-03-16T17:59:13.515Z,5.40
2019-03-16T18:03:21.796Z,7.70
2019-03-16T18:07:30.091Z,5.30
2019-03-16T18:11:38.352Z,3.80
2019-03-16T18:15:46.549Z,4.93
2019-03-16T18:19:54.775Z,5.40
2019-03-16T18:24:03.014Z,5.03
2019-03-16T18:28:11.303Z,4.97
2019-03-16T18:32:19.505Z,4.47
2019-03-16T18:36:27.736Z,4.90
2019-03-16T18:40:35.985Z,7.13
2019-03-16T18:44:44.242Z,10.43
2019-03-16T18:48:52.452Z,6.70
2019-03-16T18:53:00.674Z,12.83
2019-03-16T18:57:08.857Z,5.47
2019-03-16T19:01:17.089Z,5.23
2019-03-16T19:05:25.055Z,7.10
2019-03-16T19:09:33.385Z,5.43
2019-03-16T19:13:41.579Z,6.10
2019-03-16T19:17:58.657Z,5.30
2019-03-16T19:21:58.044Z,5.50
2019-03-16T19:26:06.273Z,8.10
2019-03-16T19:30:14.512Z,7.00
2019-03-16T19:34:22.747Z,4.93
2019-03-16T19:38:30.999Z,6.93
2019-03-16T19:42:39.197Z,7.47
2019-03-16T19:46:47.435Z,5.40
2019-03-16T19:50:55.690Z,6.20
2019-03-16T19:55:04.337Z,11.63
2019-03-16T19:59:12.568Z,8.90
2019-03-16T20:03:20.816Z,9.53
2019-03-16T20:07:29.063Z,7.03
2019-03-16T20:11:37.304Z,10.67
2019-03-16T20:15:45.555Z,6.73
2019-03-16T20:19:53.810Z,6.33
2019-03-16T20:24:02.056Z,7.90
2019-03-16T20:28:10.271Z,7.80
2019-03-16T20:32:18.477Z,8.23
2019-03-16T20:36:26.709Z,5.97
2019-03-16T20:40:34.974Z,10.83
2019-03-16T20:44:43.168Z,7.80
2019-03-16T20:48:51.439Z,6.40
2019-03-16T20:52:59.629Z,9.90
2019-03-16T20:57:07.873Z,7.70
2019-03-16T21:01:16.159Z,8.60
2019-03-16T21:05:24.418Z,6.80
2019-03-16T21:09:32.661Z,12.23
2019-03-16T21:13:40.928Z,7.43
2019-03-16T21:17:49.192Z,6.00
2019-03-16T21:21:57.459Z,15.05
2019-03-16T21:26:05.710Z,6.23
2019-03-16T21:30:14.760Z,5.57
2019-03-16T21:34:23.092Z,8.50
2019-03-16T21:38:31.355Z,10.77
2019-03-16T21:42:39.602Z,6.83
2019-03-16T21:46:47.597Z,6.57
2019-03-16T21:50:55.861Z,10.33
2019-03-16T21:55:04.216Z,5.90
2019-03-16T21:59:12.433Z,5.53
2019-03-16T22:03:20.684Z,7.70
2019-03-16T22:07:28.959Z,5.80
2019-03-16T22:11:37.177Z,6.10
2019-03-16T22:15:45.433Z,8.93
2019-03-16T22:19:53.656Z,5.70
2019-03-16T22:24:01.927Z,4.90
2019-03-16T22:28:10.372Z,5.80
2019-03-16T22:32:18.426Z,7.40
2019-03-16T22:36:26.633Z,7.57
2019-03-16T22:40:34.907Z,5.20
2019-03-16T22:44:43.192Z,6.90
2019-03-16T22:48:51.431Z,7.53
2019-03-16T22:52:59.711Z,5.77
2019-03-16T22:57:07.999Z,5.47
2019-03-16T23:01:16.256Z,7.67
2019-03-16T23:05:24.539Z,5.57
2019-03-16T23:09:32.803Z,8.47
2019-03-16T23:13:41.055Z,4.97
2019-03-16T23:17:49.312Z,5.10
2019-03-16T23:21:57.606Z,5.30
2019-03-16T23:26:06.783Z,5.57
2019-03-16T23:30:14.981Z,4.77
2019-03-16T23:34:23.173Z,7.00
2019-03-16T23:38:31.392Z,7.70
2019-03-16T23:42:39.695Z,6.20
2019-03-16T23:46:47.901Z,7.03
2019-03-16T23:50:56.130Z,6.87
2019-03-16T23:55:04.509Z,9.10
2019-03-16T23:59:12.735Z,6.17
